Date,TemperatureHighF,TemperatureAvgF,TemperatureLowF,DewpointHighF,DewpointAvgF,DewpointLowF,HumidityHigh,HumidityAvg,HumidityLow,PressureMaxIn,PressureMinIn,WindSpeedMaxMPH,WindSpeedAvgMPH,GustSpeedMaxMPH,PrecipitationSumIn
2013-1-7,59,53,49,50,47,45,85,79,70,30.18,30.08,6,4,12,0.00
2013-1-8,63,58,51,63,57,46,99,95,81,30.09,29.85,15,5,27,0.48
2013-1-9,67,64,61,66,63,60,99,97,92,30.06,29.83,11,5,23,2.04
2013-1-10,68,59,49,60,54,48,99,84,52,30.11,29.97,5,1,11,0.06
2013-1-11,71,59,44,66,56,43,99,91,72,30.05,29.86,8,2,17,0.01
2013-1-12,75,72,66,72,70,66,99,94,88,29.88,29.68,10,3,25,0.03
2013-1-13,72,48,41,70,43,38,97,84,71,30.12,29.76,12,8,23,0.12
2013-1-14,46,43,38,41,39,36,95,86,75,30.23,30.06,11,7,18,0.01
2013-1-15,43,39,36,39,36,34,96,92,86,30.17,30.03,9,6,19,0.03
2013-1-16,50,41,31,34,29,22,90,65,34,30.31,30.14,11,4,20,0.00
2013-1-17,62,45,27,38,32,25,95,66,35,30.46,30.28,6,2,14,0.00
2013-1-18,63,47,36,44,39,34,94,75,45,30.52,30.36,7,2,14,0.00
2013-1-19,70,53,37,53,46,35,97,80,45,30.36,30.17,5,1,11,0.00
2013-1-20,70,55,42,58,49,42,99,84,46,30.27,30.11,4,1,11,0.01
2013-1-21,72,56,43,58,50,43,99,83,55,30.24,30.13,3,0,7,0.01
2013-1-22,72,59,47,56,52,45,97,78,54,30.31,30.21,6,2,12,0.00
2013-1-23,76,60,46,63,55,45,99,86,56,30.34,30.22,4,1,13,0.01
2013-1-24,80,65,54,67,60,54,99,87,55,30.28,30.13,5,1,16,0.01
2013-1-25,80,66,56,67,62,56,99,87,57,30.18,30.05,6,2,17,0.01
2013-1-26,80,67,60,67,62,59,99,84,54,30.17,30.06,5,2,14,0.00
2013-1-27,77,69,62,69,65,60,96,89,73,30.12,30.02,7,4,18,0.00
2013-1-28,80,72,69,69,68,65,94,85,61,30.09,29.94,7,4,19,0.00
2013-1-29,78,72,59,71,68,55,93,88,74,29.94,29.59,9,5,27,0.05
2013-1-30,61,54,38,55,34,26,84,48,32,30.25,29.75,15,6,35,0.00
2013-1-31,67,49,31,39,32,25,96,60,21,30.33,30.20,6,2,14,0.00
2013-2-1,71,62,52,50,44,37,83,54,30,30.36,30.23,10,4,21,0.00
2013-2-2,77,60,48,59,52,46,98,76,43,30.26,30.15,5,1,9,0.00
2013-2-3,71,59,51,52,45,35,97,64,32,30.32,30.05,9,3,14,0.00
2013-2-4,73,64,56,66,60,51,98,88,71,30.05,29.82,5,2,12,0.14
2013-2-5,79,68,63,69,65,62,99,90,67,29.98,29.86,7,2,14,0.01
2013-2-6,66,64,59,65,62,58,98,95,90,30.02,29.83,12,4,21,0.62
2013-2-7,70,63,56,64,60,55,99,92,81,29.99,29.89,4,1,13,0.00
2013-2-8,70,61,52,62,53,50,98,76,52,30.17,29.99,9,4,16,0.00
2013-2-9,70,62,54,68,59,51,94,89,76,30.11,29.84,13,6,25,0.00
2013-2-10,74,66,58,70,60,49,95,82,61,29.95,29.73,11,4,25,0.01
2013-2-11,63,57,54,54,51,45,97,82,58,30.05,29.94,12,7,19,0.06
2013-2-12,62,58,55,61,56,52,99,93,80,29.99,29.81,9,3,17,0.02
2013-2-13,60,51,41,52,42,37,88,71,53,30.12,29.98,10,4,22,0.00
2013-2-14,67,50,34,46,39,33,98,70,33,30.17,30.03,4,0,11,0.00
2013-2-15,67,53,39,50,42,38,96,70,39,30.33,30.09,11,4,19,0.00
2013-2-16,61,49,37,38,31,25,77,54,32,30.45,30.25,8,3,19,0.00
2013-2-17,72,56,38,54,44,35,97,69,34,30.26,30.04,6,2,18,0.00
2013-2-18,75,66,53,68,61,50,96,83,64,30.07,29.83,12,4,23,0.38
2013-2-19,67,58,50,53,42,32,93,57,29,30.24,30.07,10,5,26,0.00
2013-2-20,65,58,54,64,52,36,98,81,50,30.11,29.76,14,8,24,0.10
2013-2-21,79,69,57,73,62,47,97,80,45,29.84,29.65,12,5,24,0.11
2013-2-22,65,60,53,53,48,41,79,67,47,29.98,29.83,10,4,15,0.00
2013-2-23,68,56,47,52,47,42,86,71,52,29.99,29.88,9,3,20,0.00
2013-2-24,69,58,44,60,53,42,96,83,66,29.94,29.65,10,4,19,0.00
2013-2-25,73,62,48,66,45,17,98,62,13,29.79,29.53,20,8,35,0.01
2013-2-26,64,52,43,40,36,33,71,55,34,29.93,29.79,10,4,28,0.00
2013-2-27,69,55,45,52,40,29,94,60,33,30.17,29.89,11,4,23,0.00
2013-2-28,57,48,39,34,31,28,72,53,40,30.29,30.15,10,4,18,0.00
2013-3-1,64,51,37,34,31,26,80,50,24,30.30,30.13,7,2,20,0.00
2013-3-2,55,47,36,35,29,22,74,52,29,30.38,30.25,12,5,25,0.00
2013-3-3,71,52,31,49,36,26,89,60,31,30.29,30.00,5,2,15,0.00
2013-3-4,79,65,51,63,58,48,94,78,53,30.00,29.77,9,4,28,0.00
2013-3-5,67,62,48,63,42,27,89,53,26,30.30,29.80,15,8,26,0.00
2013-3-6,67,52,38,42,29,23,73,45,20,30.42,30.22,11,3,17,0.00
2013-3-7,69,55,40,52,46,37,93,72,45,30.27,30.16,9,4,19,0.00
2013-3-8,70,62,53,62,57,51,96,86,69,30.20,30.06,11,6,21,0.00
2013-3-9,77,69,62,67,64,60,95,84,67,30.06,29.75,11,5,25,0.00
2013-3-10,69,62,53,66,54,39,97,76,46,30.06,29.71,12,6,21,0.18
2013-3-11,61,52,42,39,31,22,71,47,24,30.14,29.99,9,4,20,0.00
2013-3-12,75,55,36,46,35,28,81,53,23,30.24,30.07,7,1,14,0.00
2013-3-13,72,54,43,48,44,37,94,72,33,30.44,30.24,8,2,13,0.00
2013-3-14,77,59,43,55,47,41,97,70,35,30.41,30.27,6,2,17,0.00
2013-3-15,80,62,46,62,54,44,97,76,45,30.28,30.05,5,2,16,0.00
2013-3-16,81,66,53,64,59,51,98,79,50,30.05,29.83,7,2,22,0.01
2013-3-17,82,70,60,68,64,58,98,84,59,29.87,29.68,5,2,17,0.00
2013-3-18,91,76,66,70,66,60,97,74,41,29.87,29.69,8,2,17,0.00
2013-3-19,79,70,64,67,61,51,91,74,54,29.97,29.86,11,6,19,0.00
2013-3-20,74,64,54,64,51,38,92,68,29,30.17,29.92,12,5,23,0.18
2013-3-21,54,52,51,52,51,49,97,94,86,30.04,29.94,1,0,2,0.00
2013-3-22,83,77,69,71,70,67,96,79,65,29.73,29.65,5,2,16,0.00
2013-3-23,73,68,62,69,66,60,97,92,82,29.73,29.58,6,2,14,0.00
2013-3-24,60,54,47,40,33,30,67,46,35,30.14,29.98,13,7,29,0.01
2013-3-25,60,49,39,33,28,21,78,47,24,30.37,30.14,9,4,19,0.00
2013-3-26,63,50,37,30,26,22,65,41,24,30.49,30.31,7,2,13,0.00
2013-3-27,70,54,36,52,42,28,93,65,39,30.36,30.21,9,4,20,0.00
2013-3-28,73,65,58,61,57,52,88,77,62,30.25,30.16,9,5,18,0.00
2013-3-29,80,67,57,63,60,55,97,81,50,30.21,30.09,10,4,19,0.00
2013-3-30,82,70,62,66,64,60,96,81,53,30.14,29.94,6,2,16,0.00
2013-3-31,86,71,63,69,65,61,98,85,54,29.97,29.84,13,2,21,0.08
2013-4-1,79,68,60,68,64,59,98,86,64,30.05,29.92,8,3,15,0.01
2013-4-2,70,66,62,68,65,61,98,94,88,29.99,29.81,14,4,22,0.94
2013-4-3,64,60,53,63,58,51,99,94,84,30.08,29.82,10,5,20,0.12
2013-4-4,55,52,50,51,48,43,97,85,73,30.19,30.03,8,4,19,0.00
2013-4-5,73,57,43,55,48,41,94,74,51,30.26,30.08,7,2,16,0.00
2013-4-6,78,62,48,62,56,47,98,81,56,30.12,29.93,7,2,21,0.00
2013-4-7,81,69,59,66,62,58,95,80,55,29.98,29.83,10,4,23,0.00
2013-4-8,82,72,65,69,67,63,97,84,58,29.86,29.74,11,6,25,0.00
2013-4-9,84,75,68,73,70,67,95,85,67,29.78,29.67,12,8,25,0.00
2013-4-10,80,65,49,73,62,46,97,90,62,29.85,29.69,10,7,23,0.08
2013-4-11,68,54,42,49,45,40,96,75,45,29.97,29.77,11,4,21,1.23
2013-4-12,78,60,45,57,49,42,98,72,32,30.01,29.86,6,2,14,0.00
2013-4-13,76,63,50,61,55,49,98,78,46,29.96,29.81,10,4,21,0.00
2013-4-14,87,69,56,72,64,55,99,86,58,29.81,29.65,8,2,16,0.00
2013-4-15,81,74,68,73,70,67,96,88,76,29.83,29.73,6,3,15,0.00
2013-4-16,82,75,70,74,71,69,97,89,74,29.92,29.82,12,5,20,0.00
2013-4-17,77,74,72,74,72,71,97,94,89,29.92,29.73,9,6,30,0.01
2013-4-18,77,65,53,73,61,46,96,88,74,30.04,29.68,11,6,25,0.11
2013-4-19,65,55,47,45,36,30,73,52,28,30.25,30.03,11,6,22,0.00
2013-4-20,69,55,37,50,42,34,94,65,41,30.25,30.08,7,3,16,0.00
2013-4-21,73,63,52,60,55,48,90,76,60,30.16,30.04,7,3,16,0.00
2013-4-22,83,66,52,65,59,51,98,80,49,30.11,29.93,8,2,17,0.00
2013-4-23,81,71,60,69,65,58,98,84,65,29.97,29.86,7,3,19,0.01
2013-4-24,70,60,48,57,49,44,92,68,48,30.19,29.97,11,6,23,0.01
2013-4-25,71,64,58,61,51,46,85,64,46,30.30,30.17,9,5,17,0.00
2013-4-26,84,73,65,72,67,61,95,83,65,30.20,30.06,9,5,22,0.00
2013-4-27,79,69,63,73,68,62,98,94,80,30.10,29.97,15,3,23,0.99
2013-4-28,81,71,63,69,65,61,98,82,59,30.04,29.87,12,3,31,0.52
2013-4-29,81,70,65,70,67,64,99,91,65,29.93,29.81,7,2,15,0.12
2013-4-30,84,73,65,72,68,64,99,85,62,29.83,29.72,7,2,13,0.01
2013-5-1,89,75,66,72,69,65,98,82,52,29.89,29.78,6,2,13,0.00
2013-5-2,77,65,49,69,60,42,98,83,68,30.19,29.87,12,6,29,0.00
2013-5-3,66,55,44,43,37,31,80,56,27,30.22,30.06,12,6,27,0.00
2013-5-4,80,62,40,53,44,37,93,59,27,30.10,29.86,6,2,16,0.00
2013-5-5,71,62,54,53,48,45,85,63,43,30.10,29.95,8,3,20,0.00
2013-5-6,76,63,47,58,52,45,96,70,48,30.12,29.97,4,1,10,0.00
2013-5-7,87,70,54,62,58,52,97,69,41,30.07,29.94,4,1,10,0.00
2013-5-8,85,71,58,68,63,57,98,78,49,30.05,29.94,8,3,17,0.00
2013-5-9,81,74,66,74,70,64,94,88,78,29.98,29.83,8,4,20,0.00
2013-5-10,82,72,64,73,69,63,99,91,68,30.05,29.81,11,3,24,2.43
2013-5-11,83,73,64,71,65,57,99,79,53,30.08,29.92,7,3,13,0.01
2013-5-12,80,72,64,64,59,55,85,66,42,30.17,30.05,9,3,14,0.00
2013-5-13,84,69,55,66,60,54,97,76,48,30.27,30.16,6,2,13,0.00
2013-5-14,84,70,57,71,65,56,99,84,61,30.22,30.08,7,2,15,0.01
2013-5-15,82,71,66,73,67,-100,97,90,74,30.13,29.91,17,-5,17,0.18
2013-5-16,85,76,69,74,71,67,96,86,67,29.94,29.79,8,3,19,0.00
2013-5-17,89,79,71,78,73,70,97,84,66,29.93,29.82,6,3,16,0.00
2013-5-18,92,80,73,76,73,70,96,80,51,29.94,29.87,8,3,17,0.00
2013-5-19,90,80,74,75,73,71,93,79,57,29.90,29.79,9,4,21,0.00
2013-5-20,89,81,76,77,74,72,91,81,64,29.88,29.75,8,4,19,0.00
2013-5-21,89,81,76,77,75,73,93,82,64,29.85,29.70,8,4,21,0.00
2013-5-22,93,81,74,79,75,71,96,84,61,29.91,29.77,7,2,14,0.00
2013-5-23,89,80,73,77,75,72,98,84,65,30.04,29.88,7,4,16,0.00
2013-5-24,89,80,75,77,74,73,97,85,64,30.10,29.99,8,4,17,0.00
2013-5-25,86,78,73,76,74,72,97,87,68,30.13,30.03,6,4,17,0.00
2013-5-26,90,80,74,76,72,68,97,79,52,30.09,29.99,7,4,17,0.00
2013-5-27,90,80,71,76,72,70,96,80,62,30.03,29.90,8,4,19,0.00
2013-5-28,89,79,72,76,73,70,95,82,61,29.95,29.84,9,5,23,0.10
2013-5-29,86,79,74,76,74,71,94,84,70,29.88,29.78,10,5,23,0.00
2013-5-30,89,81,74,79,76,73,94,84,69,29.86,29.78,10,5,20,0.00
2013-5-31,94,83,76,79,76,75,97,81,58,29.88,29.80,6,3,18,0.00
2013-6-1,94,84,76,79,76,74,96,80,58,29.89,29.81,6,3,17,0.00
2013-6-2,83,75,70,75,72,67,98,89,69,30.03,29.86,12,2,22,0.25
2013-6-3,92,78,68,72,68,64,98,74,42,29.95,29.80,5,2,12,0.01
2013-6-4,93,80,67,75,71,66,98,77,51,29.90,29.80,6,2,13,0.00
2013-6-5,92,81,70,78,73,70,98,79,52,29.88,29.74,6,2,15,0.00
2013-6-6,98,83,72,79,74,70,98,78,48,29.87,29.70,10,1,22,0.00
2013-6-7,88,78,69,72,68,61,96,74,47,29.93,29.83,6,2,22,0.00
2013-6-8,90,80,69,75,71,66,90,75,59,29.91,29.80,8,2,18,0.00
2013-6-9,92,76,71,80,73,68,97,89,62,29.94,29.83,7,1,17,0.83
2013-6-10,94,80,69,79,74,69,99,83,56,29.97,29.92,8,2,18,0.01
2013-6-11,95,83,74,80,76,73,98,81,56,30.02,29.95,6,2,13,0.01
2013-6-12,93,82,75,81,76,72,97,84,62,30.04,29.95,5,2,14,0.00
2013-6-13,97,84,73,80,76,72,98,80,52,30.05,29.90,6,1,13,0.00
2013-6-14,98,84,74,80,76,71,98,77,45,29.97,29.86,5,1,10,0.00
2013-6-15,96,83,75,79,76,74,97,80,54,29.99,29.88,4,1,11,0.00
2013-6-16,98,84,72,79,75,71,98,76,48,30.01,29.90,5,1,14,0.00
2013-6-17,97,84,73,79,75,72,98,77,48,29.98,29.86,5,1,14,0.01
2013-6-18,96,83,72,80,75,72,98,79,51,29.98,29.85,7,1,13,0.23
2013-6-19,99,85,73,78,74,70,98,74,41,29.98,29.89,4,1,15,0.00
2013-6-20,96,84,74,80,75,72,97,77,51,30.05,29.95,7,2,16,0.04
2013-6-21,96,84,73,79,74,71,98,75,47,30.08,29.99,6,2,13,0.00
2013-6-22,97,83,74,79,74,70,98,75,45,30.04,29.92,7,2,16,0.00
2013-6-23,94,82,73,80,75,72,98,80,54,30.00,29.91,6,2,15,0.19
2013-6-24,97,85,75,79,75,71,95,75,46,30.04,29.95,6,2,17,0.00
2013-6-25,97,85,75,80,75,71,97,76,45,30.02,29.92,6,2,21,0.00
2013-6-26,99,85,74,79,74,72,97,74,43,29.99,29.89,5,2,16,0.00
2013-6-27,101,85,72,79,74,67,98,72,36,30.02,29.88,4,1,11,0.00
2013-6-28,103,85,72,77,73,66,98,72,34,29.97,29.78,5,1,13,0.00
2013-6-29,103,88,76,78,73,65,95,66,31,29.84,29.68,6,2,14,0.00
2013-6-30,97,87,76,76,68,60,93,57,33,29.85,29.75,6,2,13,0.00
2013-7-1,91,83,72,67,61,58,70,49,36,29.94,29.81,6,3,15,0.00
2013-7-2,94,81,68,68,64,58,82,58,31,29.99,29.89,8,2,15,0.00
2013-7-3,96,80,69,70,66,58,91,64,31,30.00,29.88,6,2,17,0.00
2013-7-4,94,81,68,73,69,63,93,68,39,29.97,29.87,7,2,16,0.00
2013-7-5,94,82,69,76,70,62,96,70,36,29.96,29.83,8,3,20,0.00
2013-7-6,94,83,74,77,74,70,95,75,49,29.91,29.82,9,3,18,0.00
2013-7-7,90,81,75,80,75,73,97,83,62,29.99,29.88,9,3,19,0.04
2013-7-8,92,80,74,79,75,73,96,86,63,30.14,29.98,6,2,14,0.63
2013-7-9,98,84,74,80,76,74,98,79,52,30.13,30.02,8,2,17,0.00
2013-7-10,98,84,74,80,75,73,98,77,49,30.08,29.93,8,1,19,0.00
2013-7-11,100,84,73,79,74,69,98,75,40,30.00,29.87,3,1,9,0.00
2013-7-12,96,84,75,78,74,72,96,75,48,29.95,29.86,6,1,13,0.00
2013-7-13,99,84,72,78,73,68,97,71,38,29.97,29.81,7,1,15,0.00
2013-7-14,92,83,74,78,74,71,96,76,53,29.93,29.83,7,2,14,0.14
2013-7-15,88,78,74,78,74,71,98,89,67,30.01,29.88,8,2,16,0.10
2013-7-16,84,78,73,78,74,70,96,89,77,30.09,29.99,9,3,25,0.25
2013-7-17,83,78,74,77,75,72,98,92,80,30.16,30.07,7,2,13,0.04
2013-7-18,92,82,74,78,73,64,98,76,40,30.12,29.97,7,2,16,0.00
2013-7-19,94,79,72,78,73,70,98,84,50,30.04,29.91,11,1,18,0.01
2013-7-20,94,81,75,78,75,73,96,85,52,29.97,29.85,16,2,18,0.01
2013-7-21,89,80,74,79,76,73,98,88,67,29.99,29.90,7,2,19,0.26
2013-7-22,96,85,76,81,77,75,98,80,54,30.00,29.93,5,2,15,0.00
2013-7-23,97,84,75,79,76,73,98,78,49,30.01,29.90,5,2,18,0.01
2013-7-24,98,84,71,79,75,71,98,77,48,29.99,29.85,4,1,12,0.01
2013-7-25,100,84,73,78,74,68,98,76,37,30.01,29.93,5,1,14,0.00
2013-7-26,98,84,74,80,76,73,99,78,49,30.03,29.89,5,2,13,0.00
2013-7-27,96,84,78,80,77,73,97,80,51,29.94,29.82,7,2,15,0.10
2013-7-28,95,84,77,82,77,73,97,80,52,29.95,29.87,5,2,14,0.08
2013-7-29,98,85,74,80,74,66,98,75,38,30.06,29.94,5,2,17,0.00
2013-7-30,98,84,73,79,74,66,98,76,38,30.10,30.00,5,2,14,0.00
2013-7-31,101,84,72,79,74,71,98,74,39,30.08,29.92,6,1,13,0.01
2013-8-1,99,85,74,79,74,69,98,75,40,30.02,29.88,6,2,12,0.00
2013-8-2,99,85,73,80,75,72,98,76,45,29.98,29.88,8,2,18,0.00
2013-8-3,100,85,74,82,76,73,98,78,43,30.02,29.93,10,2,18,0.49
2013-8-4,99,85,76,81,77,73,98,79,49,30.06,29.94,9,2,17,0.00
2013-8-5,100,85,74,80,75,72,98,76,44,30.03,29.91,5,2,16,0.00
2013-8-6,99,86,74,80,76,72,98,76,45,29.97,29.85,6,2,17,0.00
2013-8-7,101,86,75,80,75,66,98,74,35,29.93,29.82,4,1,14,0.01
2013-8-8,102,84,72,80,74,69,99,75,35,29.92,29.81,6,1,18,0.01
2013-8-9,100,85,73,80,76,72,98,76,44,29.96,29.84,6,2,15,0.00
2013-8-10,93,84,77,80,77,73,98,81,53,30.02,29.93,7,2,14,0.00
2013-8-11,93,84,76,80,76,72,97,79,57,30.04,29.98,8,2,19,0.03
2013-8-12,100,84,74,79,76,73,98,78,45,30.05,29.94,6,1,15,0.00
2013-8-13,102,87,75,80,74,68,98,72,35,30.02,29.86,4,1,12,0.00
2013-8-14,103,83,74,80,74,67,98,78,33,29.97,29.83,15,2,27,0.11
2013-8-15,90,80,73,76,73,68,97,81,51,30.00,29.89,5,2,17,0.03
2013-8-16,96,81,70,77,73,68,97,79,45,29.98,29.83,15,2,27,0.30
2013-8-17,92,80,71,72,68,61,97,71,39,30.00,29.88,6,2,15,0.01
2013-8-18,92,81,71,73,69,64,91,70,41,30.01,29.94,6,2,15,0.00
2013-8-19,93,81,70,74,70,62,97,72,38,30.03,29.90,8,3,17,0.00
2013-8-20,86,78,72,77,73,71,98,86,65,30.03,29.94,5,1,11,0.44
2013-8-21,93,81,72,79,74,71,98,82,52,30.05,29.97,8,2,16,0.00
2013-8-22,92,83,76,80,76,73,97,81,56,30.04,29.92,8,2,14,0.00
2013-8-23,95,83,73,78,74,71,98,78,49,29.99,29.86,7,2,15,0.00
2013-8-24,94,84,75,78,74,70,96,75,48,30.00,29.91,9,3,19,0.00
2013-8-25,86,80,77,78,75,74,93,85,71,30.06,29.97,10,5,18,0.01
2013-8-26,82,76,74,77,74,73,98,94,81,30.11,30.02,7,3,16,0.60
2013-8-27,94,79,73,79,75,72,99,88,55,30.10,30.00,7,2,16,0.77
2013-8-28,94,82,72,76,73,71,99,76,52,30.08,29.97,5,1,13,0.01
2013-8-29,99,84,73,79,74,71,98,76,44,30.06,29.91,4,1,12,0.00
2013-8-30,98,84,75,79,76,74,98,79,50,30.01,29.88,5,1,14,0.00
2013-8-31,95,83,72,79,74,71,98,77,50,29.94,29.82,5,1,15,0.00
2013-9-1,98,83,71,78,74,70,98,77,45,29.91,29.82,5,1,13,0.00
2013-9-2,98,85,75,80,75,70,98,76,44,29.96,29.82,4,1,13,0.00
2013-9-3,100,85,73,79,75,71,98,75,41,29.97,29.84,4,1,12,0.00
2013-9-4,94,84,74,78,75,72,98,77,50,30.02,29.91,7,2,15,0.00
2013-9-5,94,83,75,79,75,72,96,78,51,30.06,29.96,8,2,18,0.00
2013-9-6,91,82,75,78,75,74,96,81,59,30.05,29.93,9,3,17,0.00
2013-9-7,88,80,74,78,75,72,97,84,62,30.00,29.91,7,2,13,0.05
2013-9-8,93,79,73,79,74,70,98,87,55,29.95,29.87,7,2,22,0.72
2013-9-9,92,80,72,78,74,71,98,84,57,29.96,29.89,10,2,20,0.37
2013-9-10,91,81,74,77,74,70,95,81,55,30.03,29.95,9,3,18,0.00
2013-9-11,92,81,73,78,73,70,96,79,49,30.06,29.96,8,3,17,0.00
2013-9-12,92,81,73,77,72,67,97,76,45,30.01,29.88,9,3,18,0.00
2013-9-13,94,81,71,76,71,66,96,76,43,29.93,29.78,7,2,18,0.00
2013-9-14,92,81,73,78,74,71,97,80,54,29.90,29.82,8,3,16,0.02
2013-9-15,92,82,74,79,75,72,95,81,58,29.97,29.88,10,3,19,0.00
2013-9-16,93,82,76,79,76,73,94,83,55,30.01,29.92,12,3,26,0.00
2013-9-17,92,82,76,79,76,71,96,81,53,30.02,29.91,10,3,19,0.00
2013-9-18,92,82,75,78,75,72,98,81,56,29.98,29.87,8,3,17,0.00
2013-9-19,91,82,76,80,76,74,96,85,65,29.93,29.82,10,3,20,0.23
2013-9-20,84,79,75,81,77,74,98,94,85,29.87,29.70,7,2,18,0.72
2013-9-21,80,74,71,74,70,68,98,88,71,29.82,29.73,8,4,18,0.39
2013-9-22,85,75,66,68,63,58,93,68,44,29.83,29.71,8,3,17,0.00
2013-9-23,88,79,72,74,68,62,87,70,61,29.79,29.70,6,3,17,0.00
2013-9-24,94,83,73,77,72,64,92,72,39,29.84,29.75,7,2,16,0.00
2013-9-25,95,79,66,76,66,59,97,69,31,29.86,29.75,3,1,11,0.00
2013-9-26,92,80,67,76,69,60,98,72,37,29.89,29.80,7,2,16,0.00
2013-9-27,87,76,72,79,72,69,94,88,75,29.92,29.85,6,2,12,0.00
2013-10-8,81,66,52,63,53,47,96,68,36,30.09,29.98,2,1,0,0.00
2013-10-9,82,70,57,67,61,56,97,77,52,30.06,29.96,3,1,0,0.00
2013-10-10,87,75,60,71,66,59,98,74,52,30.04,29.92,5,3,0,0.00
2013-10-11,88,76,70,77,71,67,94,85,67,29.94,29.86,5,2,0,0.00
2013-10-12,88,78,72,76,74,71,98,91,66,30.03,29.90,4,2,0,0.56
2013-10-13,75,74,73,74,73,72,98,97,95,30.12,30.02,4,2,0,0.27
2013-10-14,85,76,72,75,72,69,98,88,62,30.08,29.94,6,2,17,0.00
2013-10-15,90,78,71,76,72,69,98,83,57,29.97,29.85,4,1,15,0.00
2013-10-16,71,66,62,70,65,60,98,94,86,30.01,29.88,6,3,12,0.03
2013-10-17,76,66,57,60,58,54,96,77,54,30.07,29.94,7,3,15,0.00
2013-10-18,73,66,57,66,61,54,95,85,71,29.99,29.86,9,3,18,0.04
2013-10-19,70,62,52,63,54,44,97,76,42,30.11,29.93,9,4,18,0.31
2013-10-20,77,61,44,62,53,42,97,76,44,30.09,29.93,5,2,9,0.00
2013-10-21,76,69,61,69,64,59,96,87,73,29.98,29.89,7,2,13,0.00
2013-10-22,75,65,54,65,58,50,96,81,45,30.09,29.95,8,3,16,0.00
2013-10-23,82,63,47,55,51,46,98,69,33,30.17,30.07,3,1,7,0.00
2013-10-24,83,66,50,61,55,49,98,73,37,30.22,30.11,4,1,10,0.00
2013-10-25,75,64,56,62,58,55,98,82,61,30.33,30.21,6,2,16,0.00
2013-10-26,82,68,58,67,61,55,94,79,55,30.24,30.08,7,3,15,0.00
2013-10-27,74,66,60,70,64,60,98,95,83,30.11,30.00,11,1,24,0.86
2013-10-28,84,72,62,74,68,62,99,88,67,30.10,30.00,7,3,17,0.01
2013-10-29,86,76,69,74,70,67,95,84,63,30.10,30.01,8,4,18,0.00
2013-10-30,84,78,73,79,75,71,95,91,80,30.04,29.84,7,4,17,0.13
2013-10-31,78,71,58,76,69,57,98,96,85,29.88,29.76,7,2,24,2.26
2013-11-1,81,66,52,65,59,52,99,82,51,29.96,29.81,5,1,12,0.02
2013-11-2,72,63,53,55,47,40,79,58,32,30.22,29.96,10,4,18,0.00
2013-11-3,71,57,43,56,50,41,95,77,52,30.21,30.06,8,3,15,0.00
2013-11-4,70,64,57,68,62,52,97,92,82,30.08,29.98,8,3,19,0.20
2013-11-5,79,73,68,73,70,66,96,90,78,30.03,29.94,6,3,16,0.03
2013-11-6,81,69,54,76,65,49,99,88,70,30.25,29.97,9,4,23,0.01
2013-11-7,66,56,47,49,42,39,82,61,41,30.39,30.24,10,6,19,0.00
2013-11-8,65,57,50,46,43,38,80,61,39,30.35,30.17,10,3,19,0.00
2013-11-9,71,62,52,60,54,46,92,77,64,30.20,30.12,6,2,10,0.00
2013-11-10,72,63,57,58,52,45,92,70,40,30.28,30.18,6,2,11,0.00
2013-11-11,74,62,52,58,54,51,96,78,51,30.25,30.13,4,1,11,0.00
2013-11-12,72,58,50,58,52,44,96,82,59,30.54,30.20,12,6,23,0.00
2013-11-13,55,45,37,43,31,26,89,61,34,30.61,30.40,10,4,18,0.00
2013-11-14,65,50,38,54,44,34,88,80,65,30.40,30.05,6,2,12,0.00
2013-11-15,80,66,54,67,61,51,97,84,61,30.05,29.89,5,2,12,0.00
2013-11-16,83,73,63,75,70,62,99,91,74,29.94,29.78,5,2,15,0.01
2013-11-17,84,77,69,75,73,68,97,88,70,29.92,29.80,6,2,20,0.00
2013-11-18,78,72,66,73,64,47,99,79,48,30.09,29.92,9,3,15,0.00
2013-11-19,68,62,56,54,49,43,83,63,52,30.12,30.01,9,5,18,0.00
2013-11-20,73,65,55,68,58,46,97,80,68,30.03,29.91,9,5,20,0.09
2013-11-21,82,75,69,77,72,68,97,93,82,30.06,29.94,8,5,17,0.29
2013-11-22,74,54,42,72,53,41,98,96,86,30.28,30.04,11,6,21,0.73
2013-11-23,49,45,42,46,43,40,97,92,82,30.37,30.25,11,8,21,0.02
2013-11-24,49,46,44,41,35,32,81,67,57,30.41,30.29,12,6,20,0.00
2013-11-25,44,41,38,42,39,35,98,93,70,30.29,29.96,11,5,20,1.10
2013-11-26,44,41,38,40,38,36,97,92,85,30.29,30.03,10,5,21,0.34
2013-11-27,49,40,32,36,31,28,88,71,45,30.45,30.29,8,3,16,0.00
2013-11-28,55,42,29,46,38,27,97,84,67,30.47,30.36,5,2,9,0.00
2013-11-29,61,48,39,45,40,35,94,74,50,30.50,30.38,5,2,11,0.00
2013-11-30,71,56,41,58,50,38,97,82,60,30.39,30.21,5,2,10,0.00
2013-12-1,73,61,52,64,58,51,98,90,71,30.21,29.95,4,1,10,0.00
2013-12-2,77,65,60,67,62,59,98,90,68,29.95,29.69,5,1,14,0.00
2013-12-3,80,68,59,69,64,58,99,89,65,29.74,29.62,6,2,17,0.02
2013-12-4,81,73,68,72,69,67,98,90,71,29.82,29.70,5,2,14,0.00
2013-12-5,73,56,38,73,54,36,99,94,82,30.03,29.79,10,4,19,0.04
2013-12-6,42,38,34,38,35,31,97,92,85,30.35,29.98,11,8,21,0.00
2013-12-7,36,34,32,35,32,30,96,91,87,30.40,30.27,9,5,19,0.00
2013-12-8,47,42,35,44,39,34,97,91,81,30.27,30.05,5,2,9,0.00
2013-12-9,47,45,39,46,44,38,98,97,94,30.30,30.05,10,5,19,0.06
2013-12-10,47,39,32,37,32,29,93,77,52,30.46,30.30,11,5,23,0.00
2013-12-11,52,46,37,43,38,32,84,76,64,30.50,30.34,5,2,11,0.00
2013-12-12,53,45,36,39,37,34,92,75,51,30.56,30.35,8,2,12,0.00
2013-12-13,59,51,42,57,48,38,97,88,82,30.35,29.85,5,2,14,0.02
2013-12-14,59,49,39,55,46,34,99,88,73,30.28,29.87,12,5,27,0.01
2013-12-15,56,41,31,36,33,29,93,75,44,30.40,30.27,8,3,15,0.00
2013-12-16,64,44,28,42,35,27,98,75,36,30.36,30.23,3,0,7,0.00
2013-12-17,70,50,33,52,41,32,98,78,36,30.35,30.23,3,0,6,0.00
2013-12-18,71,54,38,58,49,37,99,86,57,30.32,30.11,7,2,16,0.01
2013-12-19,78,66,52,68,62,51,97,88,70,30.11,29.87,6,2,17,0.00
2013-12-20,76,72,67,72,70,66,98,93,86,29.90,29.71,7,3,20,0.01
2013-12-21,75,66,53,72,64,53,98,93,83,29.85,29.58,12,3,23,0.46
2013-12-22,60,52,38,57,48,33,99,84,66,30.34,29.80,10,4,20,0.04
2013-12-23,38,35,33,33,31,30,88,86,81,30.43,30.33,7,4,19,0.00
2013-12-24,57,41,31,38,33,29,97,75,36,30.57,30.32,7,1,13,0.00
2013-12-25,59,51,38,52,46,35,92,83,70,30.35,30.26,8,3,14,0.00
2013-12-26,61,53,48,51,48,45,98,86,57,30.40,30.28,5,2,10,0.00
2013-12-27,58,52,48,47,44,40,89,74,57,30.42,30.30,7,2,12,0.00
2013-12-28,60,49,39,41,37,31,83,66,37,30.31,30.04,4,1,7,0.00
2013-12-29,68,52,36,51,42,34,97,73,41,30.17,30.00,7,1,9,0.00
2013-12-30,47,41,38,41,35,32,84,79,74,30.40,30.17,9,5,17,0.00
2013-12-31,50,44,39,41,36,32,83,73,62,30.46,30.28,6,2,11,0.00
2014-1-1,67,55,46,58,52,41,96,87,72,30.29,30.02,4,1,9,0.00
2014-1-2,59,46,37,58,35,26,97,67,41,30.44,30.06,14,7,27,0.01